Lloydminster Airport

Airport
ICAO code: 
CYLL
IATA Code: 
YLL
Summary
ICAO Region: 
NAM
Territory: 
Location: 
Lloydminster, Alberta,
Serving: 
Lloydminster
Elevation: 
2194 ft
Coordinates: 
Aerial View: 
53° 18' 33.581" N, 110° 4' 22.411" W
Airport CFIT: 
Altimeter Temperature Error Correction
Metar
Observation
CYLL 272000Z 24008KT 15SM FEW120 FEW260 M01/M09 A3008 RMK AC1CI1 AC TR SLP224
Station
Lloydminister, Alta.
Date/Time
2021-11-27 20:00:00
Wind direction
240°
Wind speed
08 kts
Lowest cloud amount
few clouds
Temperature
-1°C
Dew point
-9°C
Humidity
54%
Weather condition
n/a

Description

Lloydminster Airport, (IATA: YLL), is located 2 nm northwest of Lloydminster, Alberta, Canada.

Climatology

Humid Continental climate (Köppen climate classification Dfb) - Variable weather patterns and a large seasonal temperature variance. Summers are often warm and humid with frequent thunderstorms and winters can be very cold with frequent snowfall and persistent snow cover.

Runways

Designator Length Width Surface Rops
11/29 457 30 GRS No/No
8/26 1700 46 ASP Yes/Yes
Airport map: 
Aerial View: 

SKYbrary Partners:

Safety knowledge contributed by: